• Join FlightAware (Why Join?)
  • Login
  • US Flag 
03:05PM EDT


 

Airport Tracker/Info


-or-


 

Live Flight TrackerFlight Track Log ✈ JBU1483 ✈ 18-Aug-2014 ✈ KMCO - SKBO / BOG

Flight Track Log - Related Links

Times and Time Zones

All times are in EDT time to prevent confusion due to time zone crossing. See the JBU1483 flight status page for this flight to view local times or setup timezone preferences in your user account.

Time Position Orientation Groundspeed Altitude Reporting Facility
EDT Latitude Longitude Course Direction KTS MPH feet Rate Location/Type
11:04PM 28.4285 -81.3221 360° North 145 167 100  Level FlightAware ADS-B (KMCO)
11:04PM 28.4441 -81.3222 North 169 194 500 1,920 Climbing FlightAware ADS-B (KMCO)
11:05PM 28.4587 -81.3156 43° Northeast 178 205 1,400 1,740 Climbing FlightAware ADS-B (KMCO)
11:05PM 28.4696 -81.2990 57° Northeast 206 237 1,700 840 Climbing FlightAware ADS-B (KMCO)
11:05PM 28.4809 -81.2791 57° Northeast 230 265 2,000 900 Climbing FlightAware ADS-B (KMCO)
11:06PM 28.4929 -81.2587 56° Northeast 261 300 2,300 1,200 Climbing FlightAware ADS-B (KMCO)
11:06PM 28.5028 -81.2416 69° East 278 320 2,700 2,400 Climbing FlightAware ADS-B (KSFB)
11:06PM 28.5068 -81.2292 97° East 282 325 3,700 2,880 Climbing FlightAware ADS-B (KSFB)
11:06PM 28.5056 -81.2035 107° East 281 323 4,000 3,480 Climbing FlightAware ADS-B (KMCO)
11:06PM 28.5020 -81.1944 125° Southeast 280 322 4,400 2,820 Climbing FlightAware ADS-B (KSFB)
11:07PM 28.4911 -81.1782 131° Southeast 280 322 5,000 2,640 Climbing FlightAware ADS-B (KMCO)
11:07PM 28.4747 -81.1576 132° Southeast 287 330 5,900 2,580 Climbing FlightAware ADS-B (KMCO)
11:07PM 28.5020 -81.1944 133° Southeast 292 336 6,900 2,280 Climbing FlightAware ADS-B (KSFB)
11:09PM 28.3574 -81.0150 133° Southeast 326 375 10,600 1,800 Climbing FlightAware ADS-B (KMCO)
11:10PM 28.3140 -80.9620 133° Southeast 369 425 11,100 1,320 Climbing FlightAware ADS-B (KMCO)
11:10PM 28.2664 -80.9007 122° Southeast 382 440 12,400 1,980 Climbing FlightAware ADS-B (KMCO)
11:11PM 28.2385 -80.8323 113° Southeast 388 447 13,800 1,920 Climbing FlightAware ADS-B (KMCO)
11:12PM 28.2075 -80.7514 113° Southeast 396 456 15,000 1,800 Climbing FlightAware ADS-B (KMCO)
11:12PM 28.1793 -80.6765 113° Southeast 401 461 16,200 1,620 Climbing FlightAware ADS-B (KMCO)
11:13PM 28.1496 -80.5988 113° Southeast 407 468 17,200 1,560 Climbing FlightAware ADS-B (KMCO)
11:14PM 28.1202 -80.5203 112° Southeast 412 474 18,300 1,920 Climbing FlightAware ADS-B (KMCO)
11:14PM 28.0927 -80.4444 113° Southeast 401 461 19,800 1,860 Climbing FlightAware ADS-B (KMCO)
11:15PM 28.0630 -80.3646 113° Southeast 405 466 20,800 1,320 Climbing FlightAware ADS-B (KMCO)
11:16PM 28.0337 -80.2862 113° Southeast 413 475 21,600 1,080 Climbing FlightAware ADS-B (KMCO)
11:16PM 28.0130 -80.2481 130° Southeast 416 479 21,900 900 Climbing FlightAware ADS-B (KMCO)
11:16PM 27.9837 -80.2208 150° Southeast 418 481 22,200 1,200 Climbing FlightAware ADS-B (KMCO)
11:17PM 27.9496 -80.2054 165° South 417 480 22,700 1,140 Climbing FlightAware ADS-B (KMCO)
11:17PM 27.8734 -80.1828 165° South 425 489 23,400 720 Climbing FlightAware ADS-B (KMCO)
11:18PM 27.7975 -80.1603 165° South 442 509 23,700 660 Climbing FlightAware ADS-B (KMCO)
11:19PM 27.7139 -80.1354 165° South 450 518 24,300 900 Climbing FlightAware ADS-B (KMCO)
11:19PM 27.6377 -80.1128 165° South 455 524 24,900 960 Climbing FlightAware ADS-B (KMCO)
11:20PM 27.5562 -80.0887 165° South 458 527 25,600 960 Climbing FlightAware ADS-B (KMCO)
11:21PM 27.4734 -80.0643 165° South 463 533 26,200 900 Climbing FlightAware ADS-B (KMCO)
11:21PM 27.3857 -80.0383 165° South 466 536 26,900 1,080 Climbing FlightAware ADS-B (KMCO)
11:22PM 27.2972 -80.0122 165° South 464 534 27,700 960 Climbing FlightAware ADS-B (KMCO)
11:23PM 27.1931 -79.9817 165° South 467 537 28,400 1,140 Climbing FlightAware ADS-B (KMCO)
11:25PM 26.9143 -79.8999 165° South 453 521 30,900 1,200 Climbing FlightAware ADS-B (KEYW)
11:25PM 26.9031 -79.8966 165° South 454 522 31,000 660 Climbing FlightAware ADS-B (KEYW)
11:26PM 26.7738 -79.8589 165° South 459 528 31,700 720 Climbing FlightAware ADS-B (KEYW)
11:27PM 26.6952 -79.8360 165° South 456 525 32,200 600 Climbing FlightAware ADS-B (KEYW)
11:27PM 26.6048 -79.8098 165° South 465 535 32,500 480 Climbing FlightAware ADS-B (KEYW)
11:28PM 26.5419 -79.7915 165° South 464 534 32,800 780 Climbing FlightAware ADS-B (KEYW)
11:28PM 26.4792 -79.7732 165° South 463 533 33,300 780 Climbing FlightAware ADS-B (KEYW)
11:29PM 26.3845 -79.7458 165° South 460 529 33,800 780 Climbing FlightAware ADS-B (KEYW)
11:30PM 26.2913 -79.7189 165° South 455 524 34,500 960 Climbing FlightAware ADS-B (KEYW)
11:30PM 26.2328 -79.7021 165° South 452 520 35,000 360 Climbing FlightAware ADS-B (KEYW)
11:31PM 26.1399 -79.6753 165° South 451 519 35,000  Level FlightAware ADS-B (KEYW)
11:32PM 26.0664 -79.6541 165° South 456 525 35,000  Level FlightAware ADS-B (KEYW)
11:33PM 25.9528 -79.6213 165° South 454 522 35,000  Level FlightAware ADS-B (KEYW)
11:33PM 25.8610 -79.5994 169° South 453 521 35,000  Level FlightAware ADS-B (KEYW)
11:34PM 25.7681 -79.5811 169° South 453 521 35,000  Level FlightAware ADS-B (KEYW)
11:35PM 25.6442 -79.5555 169° South 455 524 35,000  Level FlightAware ADS-B (KEYW)
11:36PM 25.5851 -79.5431 169° South 454 522 35,000  Level FlightAware ADS-B (KEYW)
11:36PM 25.5220 -79.5298 169° South 456 525 35,000  Level FlightAware ADS-B (KEYW)
11:37PM 25.4583 -79.5165 169° South 457 526 35,000  Level FlightAware ADS-B (KEYW)
11:37PM 25.3950 -79.5032 169° South 460 529 35,000  Level FlightAware ADS-B (KEYW)
11:38PM 25.3351 -79.4907 169° South 460 529 35,000 60 Level FlightAware ADS-B (KEYW)
11:38PM 25.2687 -79.4769 169° South 459 528 35,100  Climbing FlightAware ADS-B (KEYW)
11:39PM 25.2038 -79.4632 169° South 459 528 35,000 -120 Descending FlightAware ADS-B (KEYW)
11:39PM 25.1401 -79.4500 169° South 456 525 35,000  Level FlightAware ADS-B (KEYW)
11:40PM 25.0464 -79.4305 169° South 454 522 35,000  Level FlightAware ADS-B (KEYW)
11:41PM 24.9547 -79.4115 169° South 455 524 35,000  Level FlightAware ADS-B (KEYW)
11:41PM 24.8920 -79.3985 169° South 454 522 35,000  Level FlightAware ADS-B (KEYW)
11:42PM 24.7999 -79.3794 169° South 455 524 35,000  Level FlightAware ADS-B (KEYW)
11:43PM 24.6751 -79.3536 169° South 457 526 35,000  Level FlightAware ADS-B (KEYW)
11:43PM 24.6361 -79.3456 169° South 457 526 35,000  Level FlightAware ADS-B (KEYW)
11:44PM 24.5467 -79.3272 169° South 458 527 35,000  Level FlightAware ADS-B (KEYW)
11:44PM 24.4842 -79.3143 169° South 457 526 35,000  Level FlightAware ADS-B (KEYW)
11:45PM 24.4226 -79.3015 169° South 460 529 35,000  Level FlightAware ADS-B (KEYW)
11:45PM 24.3710 -79.2909 169° South 458 527 35,000  Level FlightAware ADS-B (KEYW)
11:46PM 24.2648 -79.2691 169° South 458 527 35,000  Level FlightAware ADS-B (KEYW)
11:47PM 24.1701 -79.2497 169° South 457 526 35,000  Level FlightAware ADS-B (KEYW)
11:47PM 24.1055 -79.2366 169° South 457 526 35,000  Level FlightAware ADS-B (KEYW)
11:48PM 23.9869 -79.2123 169° South 460 529 35,000  Level FlightAware ADS-B (KEYW)
11:49PM 23.8969 -79.1927 167° South 463 533 35,000  Level FlightAware ADS-B (KEYW)
11:50PM 23.8094 -79.1714 167° South 462 532 35,000  Level FlightAware ADS-B (KEYW)
11:51PM 23.6653 -79.1374 167° South 461 531 35,000  Level FlightAware ADS-B (KEYW)
11:51PM 23.6585 -79.1357 167° South 461 531 35,000  Level FlightAware ADS-B (KEYW)
12:02AM 22.2537 -78.8090 167° South 458 527 35,000  Level FlightAware ADS-B (KEYW)
12:05AM 21.9752 -78.7936 167° South  Level FlightAware Approximate
12:06AM 21.8575 -78.7633 167° South  Level FlightAware Approximate
12:07AM 21.7399 -78.7331 167° South  Level FlightAware Approximate
12:08AM 21.6222 -78.7029 167° South  Level FlightAware Approximate
12:09AM 21.5045 -78.6728 167° South  Level FlightAware Approximate
12:10AM 21.3868 -78.6426 167° South  Level FlightAware Approximate
12:11AM 21.2691 -78.6126 167° South  Level FlightAware Approximate
12:12AM 21.1514 -78.5826 167° South  Level FlightAware Approximate
12:13AM 21.0337 -78.5527 167° South  Level FlightAware Approximate
12:14AM 20.9160 -78.5228 167° South  Level FlightAware Approximate
12:15AM 20.7983 -78.4929 167° South  Level FlightAware Approximate
12:16AM 20.6806 -78.4631 167° South  Level FlightAware Approximate
12:17AM 20.5629 -78.4333 167° South  Level FlightAware Approximate
12:18AM 20.4451 -78.4036 167° South  Level FlightAware Approximate
12:19AM 20.3274 -78.3739 167° South  Level FlightAware Approximate
12:20AM 20.2097 -78.3443 167° South  Level FlightAware Approximate
12:21AM 20.0919 -78.3148 167° South  Level FlightAware Approximate
12:22AM 19.9742 -78.2852 167° South  Level FlightAware Approximate
12:23AM 19.8575 -78.2513 165° South  Level FlightAware Approximate
12:24AM 19.7409 -78.2171 165° South  Level FlightAware Approximate
12:25AM 19.6242 -78.1830 165° South  Level FlightAware Approximate
12:26AM 19.5076 -78.1489 165° South  Level FlightAware Approximate
12:27AM 19.3910 -78.1148 165° South  Level FlightAware Approximate
12:28AM 19.2743 -78.0808 165° South  Level FlightAware Approximate
12:29AM 19.1577 -78.0469 165° South  Level FlightAware Approximate
12:30AM 19.0410 -78.0130 165° South  Level FlightAware Approximate
12:31AM 18.9244 -77.9791 165° South  Level FlightAware Approximate
12:32AM 18.8077 -77.9453 165° South  Level FlightAware Approximate
12:33AM 18.6910 -77.9116 165° South  Level FlightAware Approximate
12:34AM 18.5743 -77.8779 165° South  Level FlightAware Approximate
12:35AM 18.4576 -77.8442 165° South  Level FlightAware Approximate
12:36AM 18.3410 -77.8106 165° South  Level FlightAware Approximate
12:37AM 18.2243 -77.7770 165° South  Level FlightAware Approximate
12:38AM 18.1075 -77.7435 165° South  Level FlightAware Approximate
12:39AM 17.9908 -77.7100 165° South  Level FlightAware Approximate
12:40AM 17.8741 -77.6766 165° South  Level FlightAware Approximate
12:41AM 17.7574 -77.6432 165° South  Level FlightAware Approximate
12:42AM 17.6407 -77.6098 165° South  Level FlightAware Approximate
12:43AM 17.5239 -77.5765 165° South  Level FlightAware Approximate
12:44AM 17.4072 -77.5433 165° South  Level FlightAware Approximate
12:45AM 17.2905 -77.5101 165° South  Level FlightAware Approximate
12:46AM 17.1737 -77.4769 165° South  Level FlightAware Approximate
12:47AM 17.0569 -77.4437 165° South  Level FlightAware Approximate
12:48AM 16.9402 -77.4107 165° South  Level FlightAware Approximate
12:49AM 16.8234 -77.3776 165° South  Level FlightAware Approximate
12:50AM 16.7067 -77.3446 165° South  Level FlightAware Approximate
12:51AM 16.5899 -77.3116 165° South  Level FlightAware Approximate
12:52AM 16.4731 -77.2787 165° South  Level FlightAware Approximate
12:53AM 16.3563 -77.2458 165° South  Level FlightAware Approximate
12:54AM 16.2395 -77.2129 165° South  Level FlightAware Approximate
12:55AM 16.1227 -77.1801 165° South  Level FlightAware Approximate
12:56AM 16.0059 -77.1473 165° South  Level FlightAware Approximate
12:57AM 15.8891 -77.1146 165° South  Level FlightAware Approximate
12:58AM 15.7723 -77.0819 165° South  Level FlightAware Approximate
12:59AM 15.6555 -77.0492 165° South  Level FlightAware Approximate
01:00AM 15.5387 -77.0166 165° South  Level FlightAware Approximate
01:01AM 15.4218 -76.9840 165° South  Level FlightAware Approximate
01:02AM 15.3050 -76.9515 165° South  Level FlightAware Approximate
01:03AM 15.1882 -76.9190 165° South  Level FlightAware Approximate
01:04AM 15.0713 -76.8865 165° South  Level FlightAware Approximate
01:05AM 14.9537 -76.8574 169° South  Level FlightAware Approximate
01:06AM 14.8350 -76.8335 169° South  Level FlightAware Approximate
01:07AM 14.7162 -76.8097 169° South  Level FlightAware Approximate
01:08AM 14.5975 -76.7859 169° South  Level FlightAware Approximate
01:09AM 14.4787 -76.7621 169° South  Level FlightAware Approximate
01:10AM 14.3599 -76.7384 169° South  Level FlightAware Approximate
01:11AM 14.2412 -76.7147 169° South  Level FlightAware Approximate
01:12AM 14.1224 -76.6910 169° South  Level FlightAware Approximate
01:13AM 14.0036 -76.6673 169° South  Level FlightAware Approximate
01:14AM 13.8849 -76.6435 169° South  Level FlightAware Approximate
01:15AM 13.7662 -76.6193 169° South  Level FlightAware Approximate
01:16AM 13.6475 -76.5951 169° South  Level FlightAware Approximate
01:17AM 13.5288 -76.5710 169° South  Level FlightAware Approximate
01:18AM 13.4102 -76.5469 169° South  Level FlightAware Approximate
01:19AM 13.2915 -76.5228 169° South  Level FlightAware Approximate
01:20AM 13.1728 -76.4987 169° South  Level FlightAware Approximate
01:21AM 13.0541 -76.4746 169° South  Level FlightAware Approximate
01:22AM 12.9354 -76.4506 169° South  Level FlightAware Approximate
01:23AM 12.8167 -76.4267 169° South  Level FlightAware Approximate
01:24AM 12.6980 -76.4028 169° South  Level FlightAware Approximate
01:25AM 12.5793 -76.3790 169° South  Level FlightAware Approximate
01:26AM 12.4606 -76.3552 169° South  Level FlightAware Approximate
01:27AM 12.3419 -76.3314 169° South  Level FlightAware Approximate
01:28AM 12.2231 -76.3077 169° South  Level FlightAware Approximate
01:29AM 12.1044 -76.2839 169° South  Level FlightAware Approximate
01:30AM 11.9857 -76.2602 169° South  Level FlightAware Approximate
01:31AM 11.8669 -76.2365 169° South  Level FlightAware Approximate
01:32AM 11.7482 -76.2129 169° South  Level FlightAware Approximate
01:33AM 11.6295 -76.1892 169° South  Level FlightAware Approximate
01:34AM 11.5107 -76.1656 169° South  Level FlightAware Approximate
01:35AM 11.3920 -76.1420 169° South  Level FlightAware Approximate
01:36AM 11.2732 -76.1184 169° South  Level FlightAware Approximate
01:37AM 11.1545 -76.0948 169° South  Level FlightAware Approximate
01:38AM 11.0358 -76.0713 169° South  Level FlightAware Approximate
01:39AM 10.9170 -76.0478 169° South  Level FlightAware Approximate
01:40AM 10.7983 -76.0242 169° South  Level FlightAware Approximate
01:41AM 10.6795 -76.0007 169° South  Level FlightAware Approximate
01:42AM 10.5608 -75.9773 169° South  Level FlightAware Approximate
01:43AM 10.4420 -75.9538 169° South  Level FlightAware Approximate
01:44AM 10.3232 -75.9304 169° South  Level FlightAware Approximate
01:45AM 10.2045 -75.9070 169° South  Level FlightAware Approximate
01:46AM 10.0857 -75.8836 169° South  Level FlightAware Approximate
01:47AM 9.9670 -75.8602 169° South  Level FlightAware Approximate
01:48AM 9.8481 -75.8371 169° South  Level FlightAware Approximate
01:49AM 9.7293 -75.8139 169° South  Level FlightAware Approximate
01:50AM 9.6105 -75.7908 169° South  Level FlightAware Approximate
01:51AM 9.4917 -75.7677 169° South  Level FlightAware Approximate
01:52AM 9.3729 -75.7446 169° South  Level FlightAware Approximate
01:53AM 9.2541 -75.7215 169° South  Level FlightAware Approximate
01:54AM 9.1353 -75.6985 169° South  Level FlightAware Approximate
01:55AM 9.0165 -75.6754 169° South  Level FlightAware Approximate
01:56AM 8.8976 -75.6524 169° South  Level FlightAware Approximate
01:57AM 8.7788 -75.6294 169° South  Level FlightAware Approximate
01:58AM 8.6600 -75.6064 169° South  Level FlightAware Approximate
01:59AM 8.5412 -75.5834 169° South  Level FlightAware Approximate
02:00AM 8.4224 -75.5604 169° South  Level FlightAware Approximate
02:01AM 8.3035 -75.5375 169° South  Level FlightAware Approximate
02:02AM 8.1847 -75.5145 169° South  Level FlightAware Approximate
02:03AM 8.0659 -75.4916 169° South  Level FlightAware Approximate
02:04AM 7.9471 -75.4687 169° South  Level FlightAware Approximate
02:05AM 7.8283 -75.4456 169° South  Level FlightAware Approximate
02:06AM 7.7097 -75.4215 169° South  Level FlightAware Approximate
02:07AM 7.5911 -75.3975 169° South  Level FlightAware Approximate
02:08AM 7.4725 -75.3734 169° South  Level FlightAware Approximate
02:09AM 7.3539 -75.3494 169° South  Level FlightAware Approximate
02:10AM 7.2353 -75.3254 169° South  Level FlightAware Approximate
02:11AM 7.1167 -75.3014 169° South  Level FlightAware Approximate
02:12AM 6.9981 -75.2774 169° South  Level FlightAware Approximate
02:13AM 6.8795 -75.2534 169° South  Level FlightAware Approximate
02:14AM 6.7608 -75.2294 169° South  Level FlightAware Approximate
02:15AM 6.6422 -75.2055 169° South  Level FlightAware Approximate
02:16AM 6.5236 -75.1815 169° South  Level FlightAware Approximate
02:17AM 6.4050 -75.1577 169° South  Level FlightAware Approximate
02:18AM 6.2863 -75.1339 169° South  Level FlightAware Approximate
02:19AM 6.1677 -75.1102 169° South  Level FlightAware Approximate
02:20AM 6.0504 -75.0833 180° South  Level FlightAware Approximate
02:21AM 5.9311 -75.0662 169° South  Level FlightAware Approximate
02:22AM 5.8124 -75.0425 169° South  Level FlightAware Approximate
02:23AM 5.6940 -75.0178 168° South  Level FlightAware Approximate
02:24AM 5.5757 -74.9924 168° South  Level FlightAware Approximate
02:25AM 5.4572 -74.9681 169° South  Level FlightAware Approximate
02:26AM 5.3385 -74.9444 169° South  Level FlightAware Approximate
02:27AM 5.2199 -74.9206 169° South  Level FlightAware Approximate
02:28AM 5.1440 -74.8326 124° Southeast  Level FlightAware Approximate
02:29AM 5.0767 -74.7317 124° Southeast  Level FlightAware Approximate
02:30AM 5.0102 -74.6303 123° Southeast  Level FlightAware Approximate
02:31AM 4.9451 -74.5279 123° Southeast  Level FlightAware Approximate
02:32AM 4.8804 -74.4253 122° Southeast  Level FlightAware Approximate
02:33AM 4.8138 -74.3240 127° Southeast  Level FlightAware Approximate
02:34AM 4.7411 -74.2270 127° Southeast  Level FlightAware Approximate
02:35AM 4.7016 -74.1469 117° Southeast  Level Estimated
02:36AM 4.7016 -74.1469 117° Southeast  Level Estimated
02:37AM 4.7016 -74.1469 117° Southeast  Level Estimated
02:38AM 4.7016 -74.1469 117° Southeast  Level Estimated
02:39AM 4.7016 -74.1469 117° Southeast  Level Estimated
02:40AM 4.7016 -74.1469 117° Southeast  Level Estimated
02:41AM 4.7016 -74.1469 117° Southeast  Level Estimated
02:42AM 4.7016 -74.1469 117° Southeast  Level Estimated
02:43AM 4.7016 -74.1469 117° Southeast  Level Estimated
02:44AM 4.7016 -74.1469 117° Southeast  Level Estimated
02:45AM 4.7016 -74.1469 117° Southeast  Level Estimated
02:46AM 4.7016 -74.1469 117° Southeast  Level Estimated
02:47AM 4.7016 -74.1469 117° Southeast  Level Estimated
02:48AM 4.7016 -74.1469 117° Southeast  Level Estimated
02:49AM 4.7016 -74.1469 117° Southeast  Level Estimated
02:50AM 4.7016 -74.1469 117° Southeast  Level Estimated